Time;durP1;ratioP1;P1;durP2;ratioP2;P2;SDS_P1;SDS_P2;PMS_P1;PMS_P2;Temp;Humidity;BMP_temperature;BMP_pressure;BME280_temperature;BME280_humidity;BME280_pressure;Samples;Min_cycle;Max_cycle;Signal;HPM_P1;HPM_P2
2024/02/11 00:00:37;;;;;;;1.45;1.35;;;;;;;;;;5041072;28;20301;-79
2024/02/11 00:03:05;;;;;;;2.08;1.98;;;;;;;;;;5035782;28;20220;-78
2024/02/11 00:05:33;;;;;;;1.83;1.73;;;;;;;;;;5036399;28;20230;-78
2024/02/11 00:08:02;;;;;;;1.67;1.58;;;;;;;;;;5046033;28;20681;-77
2024/02/11 00:10:29;;;;;;;1.80;1.70;;;;;;;;;;5040709;28;20289;-78
2024/02/11 00:12:57;;;;;;;2.20;2.10;;;;;;;;;;5036048;28;20241;-78
2024/02/11 00:15:26;;;;;;;3.75;2.13;;;;;;;;;;5035967;28;20230;-77
2024/02/11 00:17:53;;;;;;;2.15;1.95;;;;;;;;;;5045159;28;20205;-78
2024/02/11 00:20:21;;;;;;;1.83;1.73;;;;;;;;;;5036190;28;20622;-78
2024/02/11 00:22:49;;;;;;;1.45;1.35;;;;;;;;;;5036187;28;20238;-78
2024/02/11 00:25:18;;;;;;;1.90;1.80;;;;;;;;;;5036653;28;20226;-76
2024/02/11 00:27:50;;;;;;;3.55;2.00;;;;;;;;;;5044211;28;20703;-79
2024/02/11 00:30:17;;;;;;;2.13;1.95;;;;;;;;;;5036081;28;20245;-78
2024/02/11 00:32:45;;;;;;;1.90;1.80;;;;;;;;;;5043958;28;20289;-78
2024/02/11 00:35:15;;;;;;;1.85;1.75;;;;;;;;;;5035409;28;20606;-78
2024/02/11 00:37:42;;;;;;;2.85;1.88;;;;;;;;;;5039051;28;20225;-79
2024/02/11 00:40:12;;;;;;;2.65;2.45;;;;;;;;;;5048554;28;20209;-78
2024/02/11 00:42:41;;;;;;;2.10;1.92;;;;;;;;;;5040109;28;20210;-78
2024/02/11 00:45:12;;;;;;;4.40;3.72;;;;;;;;;;5048339;28;20320;-79
2024/02/11 00:47:40;;;;;;;2.55;2.35;;;;;;;;;;5040607;28;20213;-78
2024/02/11 00:50:11;;;;;;;2.90;2.65;;;;;;;;;;5039276;28;20256;-78
2024/02/11 00:52:40;;;;;;;3.17;2.78;;;;;;;;;;5040432;28;20214;-78
2024/02/11 00:55:09;;;;;;;2.40;2.20;;;;;;;;;;5050007;28;20252;-81
2024/02/11 00:57:36;;;;;;;2.30;2.13;;;;;;;;;;5061757;28;20604;-81
2024/02/11 01:00:09;;;;;;;2.75;2.50;;;;;;;;;;5045668;28;20214;-81
2024/02/11 01:02:37;;;;;;;2.53;2.30;;;;;;;;;;5045447;28;20206;-82
2024/02/11 01:05:05;;;;;;;2.80;2.60;;;;;;;;;;5048129;28;20764;-80
2024/02/11 01:07:33;;;;;;;2.65;2.45;;;;;;;;;;5056776;28;20285;-80
2024/02/11 01:10:00;;;;;;;3.03;2.67;;;;;;;;;;5037724;28;20293;-81
2024/02/11 01:12:28;;;;;;;2.78;2.58;;;;;;;;;;5045544;28;20213;-81
2024/02/11 01:14:56;;;;;;;2.50;2.30;;;;;;;;;;5044510;28;20239;-79
2024/02/11 01:17:26;;;;;;;3.33;3.03;;;;;;;;;;5045424;28;20202;-79
2024/02/11 01:19:54;;;;;;;2.42;2.33;;;;;;;;;;5046541;28;20253;-79
2024/02/11 01:22:22;;;;;;;2.65;2.45;;;;;;;;;;5059855;28;20316;-80
2024/02/11 01:24:49;;;;;;;2.40;2.20;;;;;;;;;;5045545;28;20277;-80
2024/02/11 01:27:17;;;;;;;2.10;2.00;;;;;;;;;;5044643;28;20298;-80
2024/02/11 01:29:45;;;;;;;1.80;1.70;;;;;;;;;;5044808;28;20202;-81
2024/02/11 01:32:12;;;;;;;1.77;1.67;;;;;;;;;;5064634;28;20236;-80
2024/02/11 01:34:41;;;;;;;1.92;1.77;;;;;;;;;;5048291;28;20218;-80
2024/02/11 01:37:08;;;;;;;2.95;2.60;;;;;;;;;;5047649;28;20704;-81
2024/02/11 01:39:38;;;;;;;2.10;2.00;;;;;;;;;;5048659;28;20285;-80
2024/02/11 01:42:05;;;;;;;2.70;2.47;;;;;;;;;;5044569;28;20214;-82
2024/02/11 01:44:33;;;;;;;2.60;2.40;;;;;;;;;;5052801;28;20273;-81
2024/02/11 01:47:02;;;;;;;3.58;2.88;;;;;;;;;;5051928;28;20228;-81
2024/02/11 01:49:30;;;;;;;2.88;2.67;;;;;;;;;;5058359;28;20259;-80
2024/02/11 01:51:59;;;;;;;3.30;3.00;;;;;;;;;;5055811;28;20720;-79
2024/02/11 01:54:29;;;;;;;2.70;2.50;;;;;;;;;;5049223;28;20277;-79
2024/02/11 01:56:57;;;;;;;2.45;2.15;;;;;;;;;;5044036;28;20190;-80
2024/02/11 01:59:24;;;;;;;3.35;3.05;;;;;;;;;;5043944;28;20273;-79
2024/02/11 02:01:52;;;;;;;4.40;3.33;;;;;;;;;;5052316;28;20292;-79
2024/02/11 02:04:19;;;;;;;4.65;3.30;;;;;;;;;;5051775;28;20313;-79
2024/02/11 02:06:47;;;;;;;3.47;3.15;;;;;;;;;;5051346;28;20268;-80
2024/02/11 02:09:16;;;;;;;2.63;2.42;;;;;;;;;;5043565;28;20293;-81
2024/02/11 02:11:44;;;;;;;3.28;2.97;;;;;;;;;;5043300;28;20213;-80
2024/02/11 02:14:11;;;;;;;2.97;2.65;;;;;;;;;;5042504;28;20253;-81
2024/02/11 02:16:39;;;;;;;2.85;2.65;;;;;;;;;;5042652;28;20691;-81
2024/02/11 02:19:06;;;;;;;3.35;3.05;;;;;;;;;;5053697;28;20220;-81
2024/02/11 02:21:34;;;;;;;3.53;3.30;;;;;;;;;;5048003;28;20210;-81
2024/02/11 02:24:02;;;;;;;3.85;3.45;;;;;;;;;;5050936;28;20291;-81
2024/02/11 02:26:30;;;;;;;3.70;3.00;;;;;;;;;;5042719;28;20297;-81
2024/02/11 02:28:57;;;;;;;4.45;3.22;;;;;;;;;;5053546;28;20297;-80
2024/02/11 02:31:25;;;;;;;3.25;2.95;;;;;;;;;;5054903;28;20297;-81
2024/02/11 02:33:52;;;;;;;4.38;3.20;;;;;;;;;;5045065;28;20214;-79
2024/02/11 02:36:19;;;;;;;3.00;2.70;;;;;;;;;;5043469;28;20274;-81
2024/02/11 02:38:47;;;;;;;5.25;3.80;;;;;;;;;;5051630;28;20270;-81
2024/02/11 02:41:16;;;;;;;2.92;2.72;;;;;;;;;;5050341;28;20277;-82
2024/02/11 02:43:45;;;;;;;3.65;3.35;;;;;;;;;;5042663;28;20265;-81
2024/02/11 02:46:13;;;;;;;4.13;3.83;;;;;;;;;;5043216;28;20244;-81
2024/02/11 02:48:40;;;;;;;2.83;2.63;;;;;;;;;;5043108;28;20295;-81
2024/02/11 02:51:07;;;;;;;2.58;2.38;;;;;;;;;;5042695;28;20216;-81
2024/02/11 02:53:35;;;;;;;3.60;2.92;;;;;;;;;;5042822;28;20297;-81
2024/02/11 02:56:02;;;;;;;2.95;2.75;;;;;;;;;;5043127;28;20297;-81
2024/02/11 02:58:31;;;;;;;2.90;2.60;;;;;;;;;;5050587;28;20230;-80
2024/02/11 03:01:01;;;;;;;4.22;3.30;;;;;;;;;;5043092;28;20809;-81
2024/02/11 03:03:28;;;;;;;2.83;2.58;;;;;;;;;;5043246;28;20202;-80
2024/02/11 03:05:56;;;;;;;3.92;3.53;;;;;;;;;;5060069;28;20278;-81
2024/02/11 03:08:23;;;;;;;4.68;3.60;;;;;;;;;;5050744;28;20289;-81
2024/02/11 03:10:51;;;;;;;4.82;3.25;;;;;;;;;;5043879;28;20727;-81
2024/02/11 03:13:18;;;;;;;2.65;2.45;;;;;;;;;;5058242;28;20230;-79
2024/02/11 03:15:47;;;;;;;3.78;3.47;;;;;;;;;;5051221;28;20226;-81
2024/02/11 03:18:15;;;;;;;2.65;2.45;;;;;;;;;;5058980;28;20209;-81
2024/02/11 03:20:42;;;;;;;2.65;2.45;;;;;;;;;;5051359;28;20198;-81
2024/02/11 03:23:09;;;;;;;5.53;3.00;;;;;;;;;;5035064;28;20274;-81
2024/02/11 03:25:38;;;;;;;4.50;3.40;;;;;;;;;;5051668;28;20309;-81
2024/02/11 03:28:07;;;;;;;3.58;3.13;;;;;;;;;;5046577;28;20759;-80
2024/02/11 03:30:35;;;;;;;3.38;2.80;;;;;;;;;;5054632;28;20232;-81
2024/02/11 03:33:04;;;;;;;4.07;3.72;;;;;;;;;;5060069;28;20202;-80
2024/02/11 03:35:32;;;;;;;4.85;3.97;;;;;;;;;;5058429;28;20229;-79
2024/02/11 03:37:59;;;;;;;3.53;3.22;;;;;;;;;;5044520;28;20841;-81
2024/02/11 03:40:28;;;;;;;4.50;3.90;;;;;;;;;;5051455;28;20297;-81
2024/02/11 03:42:55;;;;;;;3.92;3.63;;;;;;;;;;5045190;28;20206;-80
2024/02/11 03:45:23;;;;;;;5.10;3.83;;;;;;;;;;5057653;28;20286;-80
2024/02/11 03:47:50;;;;;;;4.05;3.75;;;;;;;;;;5051625;28;20229;-80
2024/02/11 03:50:19;;;;;;;4.97;4.53;;;;;;;;;;5043214;28;20202;-79
2024/02/11 03:52:47;;;;;;;5.30;4.78;;;;;;;;;;5042712;28;20238;-80
2024/02/11 03:55:14;;;;;;;4.30;3.88;;;;;;;;;;5042710;28;20301;-81
2024/02/11 03:57:42;;;;;;;3.80;3.50;;;;;;;;;;5043246;28;20216;-81
2024/02/11 04:00:14;;;;;;;3.70;3.40;;;;;;;;;;5043012;28;20255;-81
2024/02/11 04:02:42;;;;;;;3.90;3.47;;;;;;;;;;5043669;28;20212;-81
2024/02/11 04:05:12;;;;;;;5.40;4.10;;;;;;;;;;5042827;28;20226;-81
2024/02/11 04:07:45;;;;;;;3.55;3.25;;;;;;;;;;5043001;28;20206;-81
2024/02/11 04:10:19;;;;;;;5.32;4.07;;;;;;;;;;5043096;28;20219;-81
2024/02/11 04:12:47;;;;;;;4.47;3.88;;;;;;;;;;5041925;28;20206;-79
2024/02/11 04:15:19;;;;;;;3.50;3.20;;;;;;;;;;5043234;28;20705;-80
2024/02/11 04:17:48;;;;;;;2.97;2.78;;;;;;;;;;5051282;28;20202;-81
2024/02/11 04:20:23;;;;;;;2.83;2.63;;;;;;;;;;5042821;28;20261;-81
2024/02/11 04:22:55;;;;;;;4.50;3.83;;;;;;;;;;5060167;28;20280;-81
2024/02/11 04:25:23;;;;;;;2.50;2.30;;;;;;;;;;5049025;28;20226;-80
2024/02/11 04:27:50;;;;;;;2.78;2.35;;;;;;;;;;5051041;28;20212;-79
2024/02/11 04:30:19;;;;;;;3.78;3.47;;;;;;;;;;5041676;28;20776;-80
2024/02/11 04:32:48;;;;;;;3.28;2.92;;;;;;;;;;5042377;28;20665;-80
2024/02/11 04:35:16;;;;;;;2.80;2.60;;;;;;;;;;5043077;28;20260;-81
2024/02/11 04:37:47;;;;;;;3.00;2.58;;;;;;;;;;5041760;28;20213;-79
2024/02/11 04:40:18;;;;;;;3.15;2.85;;;;;;;;;;5041653;28;20222;-81
2024/02/11 04:42:46;;;;;;;4.65;3.17;;;;;;;;;;5034106;28;20313;-80
2024/02/11 04:45:16;;;;;;;4.68;4.20;;;;;;;;;;5050287;28;20313;-80
2024/02/11 04:47:48;;;;;;;4.68;4.28;;;;;;;;;;5042142;28;20214;-80
2024/02/11 04:50:16;;;;;;;5.65;4.90;;;;;;;;;;5041880;28;20217;-79
2024/02/11 04:52:48;;;;;;;6.10;5.20;;;;;;;;;;5034206;28;20207;-81
2024/02/11 04:55:18;;;;;;;4.90;4.40;;;;;;;;;;5030982;28;20276;-80
2024/02/11 04:57:46;;;;;;;5.70;5.15;;;;;;;;;;5036960;28;20203;-81
2024/02/11 05:00:25;;;;;;;6.25;5.70;;;;;;;;;;5056849;28;20205;-81
2024/02/11 05:02:53;;;;;;;4.53;4.13;;;;;;;;;;5042472;28;20263;-81
2024/02/11 05:05:28;;;;;;;4.57;4.18;;;;;;;;;;5042467;28;20251;-81
2024/02/11 05:07:56;;;;;;;4.03;3.63;;;;;;;;;;5047802;28;20205;-81
2024/02/11 05:10:27;;;;;;;3.53;3.22;;;;;;;;;;5054403;28;20235;-81
2024/02/11 05:12:56;;;;;;;3.28;2.97;;;;;;;;;;5050778;28;20198;-81
2024/02/11 05:15:24;;;;;;;3.30;3.00;;;;;;;;;;5041616;28;20317;-80
2024/02/11 05:17:54;;;;;;;6.47;4.30;;;;;;;;;;5050488;28;20664;-81
2024/02/11 05:20:22;;;;;;;4.50;3.85;;;;;;;;;;5047113;28;20734;-81
2024/02/11 05:22:51;;;;;;;3.88;3.53;;;;;;;;;;5040591;28;20572;-79
2024/02/11 05:25:22;;;;;;;3.92;3.60;;;;;;;;;;5058021;28;20256;-80
2024/02/11 05:27:55;;;;;;;2.80;2.55;;;;;;;;;;5048672;28;20606;-79
2024/02/11 05:30:24;;;;;;;3.90;3.42;;;;;;;;;;5056551;28;20256;-80
2024/02/11 05:32:53;;;;;;;4.15;3.75;;;;;;;;;;5047383;28;20237;-80
2024/02/11 05:35:23;;;;;;;6.20;4.93;;;;;;;;;;5049865;28;20234;-80
2024/02/11 05:37:57;;;;;;;4.30;3.90;;;;;;;;;;5047964;28;20656;-79
2024/02/11 05:40:26;;;;;;;4.68;3.63;;;;;;;;;;5045162;28;20202;-79
2024/02/11 05:42:55;;;;;;;2.83;2.53;;;;;;;;;;5044948;28;20575;-81
2024/02/11 05:45:22;;;;;;;4.88;4.38;;;;;;;;;;5049961;28;20312;-79
2024/02/11 05:47:50;;;;;;;3.63;3.33;;;;;;;;;;5048384;28;20608;-78
2024/02/11 05:50:19;;;;;;;3.85;3.30;;;;;;;;;;5057817;28;20336;-79
2024/02/11 05:52:47;;;;;;;3.03;2.72;;;;;;;;;;5056816;28;20660;-80
2024/02/11 05:55:16;;;;;;;3.47;3.17;;;;;;;;;;5049013;28;20677;-80
2024/02/11 05:57:44;;;;;;;3.38;3.08;;;;;;;;;;5048980;28;20206;-81
2024/02/11 06:00:18;;;;;;;3.40;3.10;;;;;;;;;;5049149;28;20622;-80
2024/02/11 06:02:48;;;;;;;3.15;2.85;;;;;;;;;;5047839;28;20210;-80
2024/02/11 06:05:16;;;;;;;3.45;3.15;;;;;;;;;;5044652;28;20593;-81
2024/02/11 06:07:45;;;;;;;3.58;3.30;;;;;;;;;;5060677;28;20269;-80
2024/02/11 06:10:13;;;;;;;3.45;3.15;;;;;;;;;;5037033;28;20603;-81
2024/02/11 06:12:41;;;;;;;3.25;2.95;;;;;;;;;;5045009;28;20650;-79
2024/02/11 06:15:13;;;;;;;3.15;2.85;;;;;;;;;;5044536;28;20244;-81
2024/02/11 06:17:41;;;;;;;3.40;3.10;;;;;;;;;;5053528;28;20252;-81
2024/02/11 06:20:13;;;;;;;3.95;3.65;;;;;;;;;;5056305;28;20213;-80
2024/02/11 06:22:40;;;;;;;2.95;2.75;;;;;;;;;;5064592;28;20194;-81
2024/02/11 06:25:08;;;;;;;4.57;4.18;;;;;;;;;;5048095;28;20312;-79
2024/02/11 06:27:38;;;;;;;4.45;3.90;;;;;;;;;;5048087;28;20202;-81
2024/02/11 06:30:11;;;;;;;4.85;4.43;;;;;;;;;;5055810;28;20642;-81
2024/02/11 06:32:41;;;;;;;4.18;3.70;;;;;;;;;;5056899;28;20191;-81
2024/02/11 06:35:09;;;;;;;3.10;2.90;;;;;;;;;;5044174;28;20222;-81
2024/02/11 06:37:37;;;;;;;5.75;5.25;;;;;;;;;;5045043;28;20209;-80
2024/02/11 06:40:09;;;;;;;6.65;5.72;;;;;;;;;;5044403;28;20221;-82
2024/02/11 06:42:36;;;;;;;6.53;5.40;;;;;;;;;;5044805;28;20638;-80
2024/02/11 06:45:06;;;;;;;3.58;3.28;;;;;;;;;;5055079;28;20290;-81
2024/02/11 06:47:34;;;;;;;5.90;4.60;;;;;;;;;;5055732;28;20209;-81
2024/02/11 06:50:03;;;;;;;4.93;4.43;;;;;;;;;;5053878;28;20592;-81
2024/02/11 06:52:31;;;;;;;4.35;3.40;;;;;;;;;;5044086;28;20270;-81
2024/02/11 06:54:58;;;;;;;4.03;3.60;;;;;;;;;;5042176;28;20238;-78
2024/02/11 06:57:26;;;;;;;4.20;3.80;;;;;;;;;;5045043;28;20241;-78
2024/02/11 06:59:55;;;;;;;3.38;3.10;;;;;;;;;;5037688;28;20627;-77
2024/02/11 07:02:22;;;;;;;3.20;2.90;;;;;;;;;;5037417;28;20206;-77
2024/02/11 07:04:54;;;;;;;5.07;4.68;;;;;;;;;;5037347;28;20312;-77
2024/02/11 07:07:24;;;;;;;5.55;3.55;;;;;;;;;;5038195;28;20242;-77
2024/02/11 07:09:51;;;;;;;3.85;3.45;;;;;;;;;;5036988;28;20609;-78
2024/02/11 07:12:20;;;;;;;2.92;2.72;;;;;;;;;;5036159;28;20202;-77
2024/02/11 07:14:47;;;;;;;3.22;3.03;;;;;;;;;;5036492;28;20226;-76
2024/02/11 07:17:15;;;;;;;3.35;3.13;;;;;;;;;;5036961;28;20216;-76
2024/02/11 07:19:43;;;;;;;4.20;3.83;;;;;;;;;;5036430;28;20211;-77
2024/02/11 07:22:11;;;;;;;5.72;5.22;;;;;;;;;;5036091;28;20210;-77
2024/02/11 07:24:41;;;;;;;5.25;4.75;;;;;;;;;;5035905;28;20313;-77
2024/02/11 07:27:11;;;;;;;5.20;4.60;;;;;;;;;;5044684;28;20217;-77
2024/02/11 07:29:39;;;;;;;4.35;3.95;;;;;;;;;;5036181;28;20203;-77
2024/02/11 07:32:07;;;;;;;6.28;5.55;;;;;;;;;;5043556;28;20226;-77
2024/02/11 07:34:34;;;;;;;4.80;4.30;;;;;;;;;;5043961;28;20226;-77
2024/02/11 07:37:02;;;;;;;5.47;4.97;;;;;;;;;;5044494;28;20197;-77
2024/02/11 07:39:30;;;;;;;5.07;4.32;;;;;;;;;;5035695;28;20252;-77
2024/02/11 07:41:59;;;;;;;4.18;3.78;;;;;;;;;;5034969;28;20206;-77
2024/02/11 07:44:26;;;;;;;3.53;3.22;;;;;;;;;;5035979;28;20226;-77
2024/02/11 07:46:55;;;;;;;4.10;3.70;;;;;;;;;;5034526;28;20206;-77
2024/02/11 07:49:23;;;;;;;5.35;4.85;;;;;;;;;;5036192;28;20232;-77
2024/02/11 07:51:50;;;;;;;5.97;4.68;;;;;;;;;;5035377;28;20230;-77
2024/02/11 07:54:19;;;;;;;3.92;3.38;;;;;;;;;;5035030;28;20297;-77
2024/02/11 07:56:46;;;;;;;3.05;2.75;;;;;;;;;;5035390;28;20644;-77
2024/02/11 07:59:15;;;;;;;2.92;2.70;;;;;;;;;;5035622;28;20221;-76
2024/02/11 08:01:42;;;;;;;2.97;2.78;;;;;;;;;;5035362;28;20203;-77
2024/02/11 08:04:11;;;;;;;2.83;2.63;;;;;;;;;;5027435;28;20222;-77
2024/02/11 08:06:39;;;;;;;4.38;3.97;;;;;;;;;;5035780;28;20226;-76
2024/02/11 08:09:09;;;;;;;3.40;3.10;;;;;;;;;;5035274;28;20214;-77
2024/02/11 08:11:36;;;;;;;3.22;2.97;;;;;;;;;;5035675;28;20230;-77
2024/02/11 08:14:04;;;;;;;4.25;2.60;;;;;;;;;;5035465;28;21674;-77
2024/02/11 08:16:33;;;;;;;3.38;3.08;;;;;;;;;;5035666;28;20211;-77
2024/02/11 08:19:03;;;;;;;4.35;3.22;;;;;;;;;;5035277;28;20201;-77
2024/02/11 08:21:30;;;;;;;4.03;3.63;;;;;;;;;;5035412;28;20202;-77
2024/02/11 08:23:58;;;;;;;2.45;2.25;;;;;;;;;;5034423;28;20232;-77
2024/02/11 08:26:25;;;;;;;3.33;3.05;;;;;;;;;;5034242;28;20206;-77
2024/02/11 08:28:53;;;;;;;5.03;4.43;;;;;;;;;;5034594;28;20645;-77
2024/02/11 08:31:20;;;;;;;4.25;3.85;;;;;;;;;;5033838;28;20229;-77
2024/02/11 08:33:49;;;;;;;3.05;2.85;;;;;;;;;;5033537;28;20301;-77
2024/02/11 08:36:17;;;;;;;3.30;3.10;;;;;;;;;;5033935;28;20215;-77
2024/02/11 08:38:44;;;;;;;3.10;2.80;;;;;;;;;;5033771;28;20206;-77
2024/02/11 08:41:12;;;;;;;3.08;2.63;;;;;;;;;;5033875;28;20202;-76
2024/02/11 08:43:39;;;;;;;4.38;3.60;;;;;;;;;;5033336;28;20210;-77
2024/02/11 08:46:06;;;;;;;3.40;3.10;;;;;;;;;;5033237;28;20202;-77
2024/02/11 08:48:34;;;;;;;2.90;2.67;;;;;;;;;;5033824;28;20228;-77
2024/02/11 08:51:03;;;;;;;2.55;2.35;;;;;;;;;;5034127;28;20230;-77
2024/02/11 08:53:32;;;;;;;2.95;2.58;;;;;;;;;;5033566;28;20242;-77
2024/02/11 08:55:59;;;;;;;2.50;2.30;;;;;;;;;;5042633;28;20235;-77
2024/02/11 08:58:27;;;;;;;2.90;2.67;;;;;;;;;;5037137;28;20654;-77
2024/02/11 09:00:55;;;;;;;4.70;4.30;;;;;;;;;;5038223;28;20214;-77
2024/02/11 09:03:22;;;;;;;2.78;2.58;;;;;;;;;;5037477;28;20210;-77
2024/02/11 09:05:50;;;;;;;2.92;2.72;;;;;;;;;;5038341;28;20809;-77
2024/02/11 09:08:20;;;;;;;2.30;2.13;;;;;;;;;;5046850;28;20206;-77
2024/02/11 09:10:48;;;;;;;3.60;3.30;;;;;;;;;;5038769;28;20693;-77
2024/02/11 09:13:16;;;;;;;2.80;2.60;;;;;;;;;;5038346;28;20210;-77
2024/02/11 09:15:44;;;;;;;5.22;4.35;;;;;;;;;;5037778;28;20299;-77
2024/02/11 09:18:15;;;;;;;4.65;4.25;;;;;;;;;;5039016;28;20210;-77
2024/02/11 09:20:43;;;;;;;3.42;3.13;;;;;;;;;;5038684;28;20198;-77
2024/02/11 09:23:11;;;;;;;3.80;2.92;;;;;;;;;;5025736;28;20288;-77
2024/02/11 09:25:42;;;;;;;6.25;4.22;;;;;;;;;;5050517;28;20260;-77
2024/02/11 09:28:10;;;;;;;4.45;3.95;;;;;;;;;;5042636;28;20269;-78
2024/02/11 09:30:42;;;;;;;4.28;3.83;;;;;;;;;;5042603;28;20202;-77
2024/02/11 09:33:09;;;;;;;3.97;3.60;;;;;;;;;;5039768;28;20223;-77
2024/02/11 09:35:37;;;;;;;3.70;3.40;;;;;;;;;;5039103;28;20241;-77
2024/02/11 09:38:05;;;;;;;5.05;4.57;;;;;;;;;;5039147;28;20220;-77
2024/02/11 09:40:35;;;;;;;3.95;3.65;;;;;;;;;;5038427;28;20210;-77
2024/02/11 09:43:05;;;;;;;3.50;3.20;;;;;;;;;;5039864;28;20209;-77
2024/02/11 09:45:33;;;;;;;3.95;3.55;;;;;;;;;;5047627;28;20254;-78
2024/02/11 09:48:00;;;;;;;3.75;3.42;;;;;;;;;;5039154;28;20207;-78
2024/02/11 09:50:28;;;;;;;3.30;3.00;;;;;;;;;;5038858;28;20206;-78
2024/02/11 09:52:56;;;;;;;3.92;3.63;;;;;;;;;;5038679;28;20230;-77
2024/02/11 09:55:24;;;;;;;3.53;3.22;;;;;;;;;;5038014;28;20704;-78
2024/02/11 09:57:51;;;;;;;3.10;2.75;;;;;;;;;;5047190;28;20214;-77
2024/02/11 10:00:21;;;;;;;2.60;2.40;;;;;;;;;;5038895;28;20210;-77
2024/02/11 10:02:49;;;;;;;4.63;4.22;;;;;;;;;;5038816;28;20214;-77
2024/02/11 10:05:18;;;;;;;5.07;4.68;;;;;;;;;;5043037;28;20703;-78
2024/02/11 10:07:46;;;;;;;4.82;4.38;;;;;;;;;;5041855;28;20221;-77
2024/02/11 10:10:16;;;;;;;4.95;3.90;;;;;;;;;;5038172;28;20213;-77
2024/02/11 10:12:43;;;;;;;4.15;3.78;;;;;;;;;;5038580;28;20232;-76
2024/02/11 10:15:16;;;;;;;4.82;4.43;;;;;;;;;;5034181;28;20218;-78
2024/02/11 10:17:45;;;;;;;5.45;4.95;;;;;;;;;;5042361;28;20233;-77
2024/02/11 10:20:13;;;;;;;3.55;3.28;;;;;;;;;;5022560;28;20293;-77
2024/02/11 10:22:40;;;;;;;4.03;3.65;;;;;;;;;;5038067;28;20202;-77
2024/02/11 10:25:11;;;;;;;3.80;3.50;;;;;;;;;;5037943;28;20238;-77
2024/02/11 10:27:39;;;;;;;3.20;3.00;;;;;;;;;;5046437;28;20293;-77
2024/02/11 10:30:10;;;;;;;2.75;2.55;;;;;;;;;;5037670;28;20305;-77
2024/02/11 10:32:38;;;;;;;2.70;2.50;;;;;;;;;;5045098;28;20695;-77
2024/02/11 10:35:11;;;;;;;3.70;3.40;;;;;;;;;;5041517;28;20226;-78
2024/02/11 10:37:41;;;;;;;3.88;3.42;;;;;;;;;;5042863;28;20570;-77
2024/02/11 10:40:11;;;;;;;3.72;3.45;;;;;;;;;;5059071;28;20228;-77
2024/02/11 10:42:40;;;;;;;2.75;2.55;;;;;;;;;;5043715;28;20202;-78
2024/02/11 10:45:10;;;;;;;3.03;2.75;;;;;;;;;;5039618;28;20234;-77
2024/02/11 10:47:38;;;;;;;2.72;2.53;;;;;;;;;;5039104;28;20515;-77
2024/02/11 10:50:08;;;;;;;2.70;2.50;;;;;;;;;;5038787;28;20206;-77
2024/02/11 10:52:41;;;;;;;2.28;2.08;;;;;;;;;;5039176;28;20237;-78
2024/02/11 10:55:12;;;;;;;1.70;1.60;;;;;;;;;;5042205;28;20730;-78
2024/02/11 10:57:47;;;;;;;2.25;2.15;;;;;;;;;;5043110;28;20725;-78
2024/02/11 11:00:17;;;;;;;1.75;1.65;;;;;;;;;;5032077;28;20217;-78
2024/02/11 11:02:44;;;;;;;2.38;1.92;;;;;;;;;;5039572;28;20665;-77
2024/02/11 11:05:19;;;;;;;1.42;1.35;;;;;;;;;;5046953;28;20222;-77
2024/02/11 11:07:49;;;;;;;1.27;1.20;;;;;;;;;;5022689;28;20676;-78
2024/02/11 11:10:18;;;;;;;1.10;1.10;;;;;;;;;;5043386;28;20210;-78
2024/02/11 11:12:49;;;;;;;1.40;0.70;;;;;;;;;;5042488;28;20233;-78
2024/02/11 11:15:23;;;;;;;1.33;1.23;;;;;;;;;;5039760;28;20218;-78
2024/02/11 11:17:51;;;;;;;0.80;0.80;;;;;;;;;;5039706;28;20301;-78
2024/02/11 11:20:21;;;;;;;0.70;0.70;;;;;;;;;;5039208;28;20206;-78
2024/02/11 11:22:52;;;;;;;0.82;0.82;;;;;;;;;;5039216;28;20209;-78
2024/02/11 11:25:21;;;;;;;0.60;0.60;;;;;;;;;;5046328;28;20232;-78
2024/02/11 11:27:49;;;;;;;0.77;0.70;;;;;;;;;;5048144;28;20218;-77
2024/02/11 11:30:17;;;;;;;0.80;0.80;;;;;;;;;;5054139;28;20211;-77
2024/02/11 11:32:47;;;;;;;0.60;0.60;;;;;;;;;;5038066;28;20593;-78
2024/02/11 11:35:17;;;;;;;0.60;0.60;;;;;;;;;;5038559;28;20297;-77
2024/02/11 11:37:46;;;;;;;0.65;0.65;;;;;;;;;;5046285;28;20206;-77
2024/02/11 11:40:16;;;;;;;0.60;0.60;;;;;;;;;;5029988;28;20281;-77
2024/02/11 11:42:44;;;;;;;0.80;0.80;;;;;;;;;;5038997;28;20606;-78
2024/02/11 11:45:12;;;;;;;0.57;0.57;;;;;;;;;;5038598;28;20226;-77
2024/02/11 11:47:40;;;;;;;0.60;0.60;;;;;;;;;;5037812;28;20217;-78
2024/02/11 11:50:09;;;;;;;0.80;0.80;;;;;;;;;;5037349;28;20206;-78
2024/02/11 11:52:38;;;;;;;0.60;0.60;;;;;;;;;;5038390;28;20212;-78
2024/02/11 11:55:09;;;;;;;0.90;0.90;;;;;;;;;;5038872;28;20709;-78
2024/02/11 11:57:36;;;;;;;0.90;0.90;;;;;;;;;;5038693;28;20253;-77
2024/02/11 12:00:07;;;;;;;1.20;1.10;;;;;;;;;;5046629;28;20229;-78
2024/02/11 12:02:35;;;;;;;3.28;2.63;;;;;;;;;;5046762;28;20254;-77
2024/02/11 12:05:03;;;;;;;3.00;2.05;;;;;;;;;;5047640;28;20859;-78
2024/02/11 12:07:32;;;;;;;2.10;1.83;;;;;;;;;;5039466;28;20213;-78
2024/02/11 12:10:00;;;;;;;3.13;2.47;;;;;;;;;;5040781;28;20218;-77
2024/02/11 12:12:29;;;;;;;2.63;2.42;;;;;;;;;;5053783;28;20202;-78
2024/02/11 12:14:56;;;;;;;3.15;2.33;;;;;;;;;;5044052;28;20716;-78
2024/02/11 12:17:25;;;;;;;3.63;2.33;;;;;;;;;;5045258;28;20214;-78
2024/02/11 12:19:56;;;;;;;3.15;2.72;;;;;;;;;;5041538;28;20210;-78
2024/02/11 12:22:25;;;;;;;2.60;2.40;;;;;;;;;;5054442;28;20202;-78
2024/02/11 12:24:52;;;;;;;3.60;2.83;;;;;;;;;;5041355;28;20280;-79
2024/02/11 12:27:20;;;;;;;2.65;2.30;;;;;;;;;;5047409;28;20695;-78
2024/02/11 12:29:56;;;;;;;2.85;2.55;;;;;;;;;;5040211;28;20213;-78
2024/02/11 12:32:24;;;;;;;3.25;2.35;;;;;;;;;;5048391;28;20201;-78
2024/02/11 12:34:56;;;;;;;2.90;2.53;;;;;;;;;;5045931;28;20297;-78
2024/02/11 12:37:24;;;;;;;3.25;2.95;;;;;;;;;;5046886;28;20206;-77
2024/02/11 12:39:54;;;;;;;4.13;3.35;;;;;;;;;;5045058;28;20211;-77
2024/02/11 12:42:22;;;;;;;3.95;2.47;;;;;;;;;;5065468;28;20628;-78
2024/02/11 12:44:49;;;;;;;2.92;2.00;;;;;;;;;;5056094;28;20228;-77
2024/02/11 12:47:18;;;;;;;4.22;2.85;;;;;;;;;;5052499;28;20206;-78
2024/02/11 12:49:46;;;;;;;2.10;1.98;;;;;;;;;;5044017;28;20268;-77
2024/02/11 12:52:13;;;;;;;2.45;2.25;;;;;;;;;;5047103;28;20276;-78
2024/02/11 12:54:41;;;;;;;2.35;2.15;;;;;;;;;;5063092;23;20229;-78
2024/02/11 12:57:08;;;;;;;2.35;2.15;;;;;;;;;;5065478;28;20229;-78
2024/02/11 12:59:35;;;;;;;2.70;2.50;;;;;;;;;;5055757;28;20292;-78
2024/02/11 13:02:03;;;;;;;2.90;2.40;;;;;;;;;;5068323;28;20219;-78
2024/02/11 13:04:32;;;;;;;1.98;1.88;;;;;;;;;;5050977;28;20776;-78
2024/02/11 13:06:59;;;;;;;1.85;1.75;;;;;;;;;;5040633;28;20208;-78
2024/02/11 13:09:27;;;;;;;1.80;1.70;;;;;;;;;;5045862;28;20563;-78
2024/02/11 13:11:54;;;;;;;1.95;1.70;;;;;;;;;;5041848;28;20202;-78
2024/02/11 13:14:22;;;;;;;1.70;1.60;;;;;;;;;;5040247;28;20356;-79
2024/02/11 13:16:49;;;;;;;2.42;2.15;;;;;;;;;;5049174;28;20206;-79
2024/02/11 13:19:17;;;;;;;2.20;2.10;;;;;;;;;;5046172;28;20217;-79
2024/02/11 13:21:47;;;;;;;2.58;2.38;;;;;;;;;;5040165;28;20684;-79
2024/02/11 13:24:15;;;;;;;1.30;1.30;;;;;;;;;;5040064;28;20249;-79
2024/02/11 13:26:43;;;;;;;1.55;1.45;;;;;;;;;;5040377;28;20210;-79
2024/02/11 13:29:10;;;;;;;1.63;1.52;;;;;;;;;;5048148;28;20212;-79
2024/02/11 13:31:42;;;;;;;2.15;1.95;;;;;;;;;;5047411;28;20197;-79
2024/02/11 13:34:09;;;;;;;1.60;1.50;;;;;;;;;;5051517;28;20324;-79
2024/02/11 13:36:37;;;;;;;1.55;1.45;;;;;;;;;;5060450;28;20204;-79
2024/02/11 13:39:05;;;;;;;2.25;2.10;;;;;;;;;;5048225;28;20617;-78
2024/02/11 13:41:33;;;;;;;1.52;1.42;;;;;;;;;;5047298;28;20293;-79
2024/02/11 13:44:00;;;;;;;2.25;2.05;;;;;;;;;;5038070;28;20230;-79
2024/02/11 13:46:28;;;;;;;1.73;1.60;;;;;;;;;;5039951;28;20210;-79
2024/02/11 13:48:57;;;;;;;1.50;1.40;;;;;;;;;;5057422;28;20208;-78
2024/02/11 13:51:24;;;;;;;1.67;1.58;;;;;;;;;;5054042;28;20210;-78
2024/02/11 13:53:52;;;;;;;1.60;1.50;;;;;;;;;;5038385;28;20214;-79
2024/02/11 13:56:21;;;;;;;1.63;1.52;;;;;;;;;;5047389;28;20742;-78
2024/02/11 13:58:48;;;;;;;1.90;1.63;;;;;;;;;;5038772;28;20209;-79
2024/02/11 14:01:15;;;;;;;1.40;1.40;;;;;;;;;;5039339;28;20206;-79
2024/02/11 14:03:43;;;;;;;1.45;1.35;;;;;;;;;;5038950;28;20206;-78
2024/02/11 14:06:12;;;;;;;1.73;1.48;;;;;;;;;;5047045;28;20280;-79
2024/02/11 14:08:40;;;;;;;1.48;1.38;;;;;;;;;;5046719;28;20205;-81
2024/02/11 14:11:08;;;;;;;1.73;1.50;;;;;;;;;;5059288;28;20700;-79
2024/02/11 14:13:37;;;;;;;1.83;1.73;;;;;;;;;;5058376;28;20208;-79
2024/02/11 14:16:05;;;;;;;1.45;1.35;;;;;;;;;;5055709;28;20775;-78
2024/02/11 14:18:33;;;;;;;1.63;1.52;;;;;;;;;;5045278;28;20229;-78
2024/02/11 14:21:01;;;;;;;2.00;1.80;;;;;;;;;;5058207;28;20206;-79
2024/02/11 14:23:31;;;;;;;1.58;1.48;;;;;;;;;;5057905;28;20255;-78
2024/02/11 14:25:59;;;;;;;1.83;1.73;;;;;;;;;;5057697;28;20232;-78
2024/02/11 14:28:26;;;;;;;1.30;1.20;;;;;;;;;;5050049;28;20209;-78
2024/02/11 14:30:56;;;;;;;1.38;1.20;;;;;;;;;;5049740;28;20271;-78
2024/02/11 14:33:24;;;;;;;1.52;1.42;;;;;;;;;;5058104;28;20288;-78
2024/02/11 14:35:51;;;;;;;2.10;2.00;;;;;;;;;;5057833;28;20214;-78
2024/02/11 14:38:18;;;;;;;1.67;1.58;;;;;;;;;;5052315;28;20463;-79
2024/02/11 14:40:46;;;;;;;1.63;1.52;;;;;;;;;;5037970;28;20210;-79
2024/02/11 14:43:14;;;;;;;1.50;1.40;;;;;;;;;;5038333;28;20676;-78
2024/02/11 14:45:41;;;;;;;1.00;1.00;;;;;;;;;;5046311;28;20317;-78
2024/02/11 14:48:11;;;;;;;1.15;1.15;;;;;;;;;;5037819;28;20206;-78
2024/02/11 14:50:38;;;;;;;1.10;1.10;;;;;;;;;;5038323;28;20203;-79